sensor_id;sensor_type;location;lat;lon;timestamp;P1;durP1;ratioP1;P2;durP2;ratioP2
6561;SDS011;3314;50.890;4.722;2024-03-06T00:01:48;11.5;;;3.6;;
6561;SDS011;3314;50.890;4.722;2024-03-06T00:03:48;13.5;;;3.8;;
6561;SDS011;3314;50.890;4.722;2024-03-06T00:05:50;10.7;;;3.8;;
6561;SDS011;3314;50.890;4.722;2024-03-06T00:07:50;12.5;;;4.5;;
6561;SDS011;3314;50.890;4.722;2024-03-06T00:09:50;9.8;;;3.9;;
6561;SDS011;3314;50.890;4.722;2024-03-06T00:11:52;11.8;;;4.4;;
6561;SDS011;3314;50.890;4.722;2024-03-06T00:13:44;12.9;;;4.6;;
6561;SDS011;3314;50.890;4.722;2024-03-06T00:15:45;11.4;;;4.3;;
6561;SDS011;3314;50.890;4.722;2024-03-06T00:17:45;10.3;;;3.7;;
6561;SDS011;3314;50.890;4.722;2024-03-06T00:19:45;11.0;;;4.0;;
6561;SDS011;3314;50.890;4.722;2024-03-06T00:21:44;10.8;;;4.3;;
6561;SDS011;3314;50.890;4.722;2024-03-06T00:23:46;10.6;;;3.9;;
6561;SDS011;3314;50.890;4.722;2024-03-06T00:25:46;10.3;;;4.3;;
6561;SDS011;3314;50.890;4.722;2024-03-06T00:27:45;13.3;;;3.7;;
6561;SDS011;3314;50.890;4.722;2024-03-06T00:29:45;12.2;;;4.2;;
6561;SDS011;3314;50.890;4.722;2024-03-06T00:31:45;9.8;;;3.6;;
6561;SDS011;3314;50.890;4.722;2024-03-06T00:33:48;10.0;;;4.0;;
6561;SDS011;3314;50.890;4.722;2024-03-06T00:35:47;11.1;;;4.1;;
6561;SDS011;3314;50.890;4.722;2024-03-06T00:37:47;11.3;;;4.5;;
6561;SDS011;3314;50.890;4.722;2024-03-06T00:39:47;11.2;;;4.1;;
6561;SDS011;3314;50.890;4.722;2024-03-06T00:41:49;10.7;;;4.0;;
6561;SDS011;3314;50.890;4.722;2024-03-06T00:43:37;12.3;;;4.3;;
6561;SDS011;3314;50.890;4.722;2024-03-06T00:45:37;11.3;;;3.9;;
6561;SDS011;3314;50.890;4.722;2024-03-06T00:47:36;10.7;;;4.5;;
6561;SDS011;3314;50.890;4.722;2024-03-06T00:49:36;12.6;;;4.2;;
6561;SDS011;3314;50.890;4.722;2024-03-06T00:51:37;9.9;;;3.9;;
6561;SDS011;3314;50.890;4.722;2024-03-06T00:53:37;13.1;;;5.0;;
6561;SDS011;3314;50.890;4.722;2024-03-06T00:55:37;11.6;;;4.9;;
6561;SDS011;3314;50.890;4.722;2024-03-06T00:57:37;12.7;;;4.8;;
6561;SDS011;3314;50.890;4.722;2024-03-06T00:59:36;12.3;;;4.0;;
6561;SDS011;3314;50.890;4.722;2024-03-06T01:01:36;14.0;;;4.2;;
6561;SDS011;3314;50.890;4.722;2024-03-06T01:03:37;13.7;;;5.0;;
6561;SDS011;3314;50.890;4.722;2024-03-06T01:05:37;12.0;;;4.7;;
6561;SDS011;3314;50.890;4.722;2024-03-06T01:07:37;10.9;;;4.3;;
6561;SDS011;3314;50.890;4.722;2024-03-06T01:09:37;12.4;;;4.5;;
6561;SDS011;3314;50.890;4.722;2024-03-06T01:11:37;13.1;;;4.9;;
6561;SDS011;3314;50.890;4.722;2024-03-06T01:13:37;14.4;;;4.4;;
6561;SDS011;3314;50.890;4.722;2024-03-06T01:17:37;12.7;;;4.3;;
6561;SDS011;3314;50.890;4.722;2024-03-06T01:19:37;10.8;;;4.3;;
6561;SDS011;3314;50.890;4.722;2024-03-06T01:21:36;10.5;;;4.3;;
6561;SDS011;3314;50.890;4.722;2024-03-06T01:23:37;14.4;;;4.3;;
6561;SDS011;3314;50.890;4.722;2024-03-06T01:25:40;11.8;;;4.5;;
6561;SDS011;3314;50.890;4.722;2024-03-06T01:27:28;12.0;;;4.4;;
6561;SDS011;3314;50.890;4.722;2024-03-06T01:29:32;11.9;;;4.3;;
6561;SDS011;3314;50.890;4.722;2024-03-06T01:31:31;11.9;;;4.6;;
6561;SDS011;3314;50.890;4.722;2024-03-06T01:33:31;10.1;;;4.2;;
6561;SDS011;3314;50.890;4.722;2024-03-06T01:35:31;12.7;;;5.2;;
6561;SDS011;3314;50.890;4.722;2024-03-06T01:37:34;13.0;;;4.9;;
6561;SDS011;3314;50.890;4.722;2024-03-06T01:39:37;15.4;;;4.5;;
6561;SDS011;3314;50.890;4.722;2024-03-06T01:41:26;11.6;;;4.1;;
6561;SDS011;3314;50.890;4.722;2024-03-06T01:43:26;14.0;;;5.0;;
6561;SDS011;3314;50.890;4.722;2024-03-06T01:45:25;14.0;;;4.9;;
6561;SDS011;3314;50.890;4.722;2024-03-06T01:47:25;14.9;;;4.8;;
6561;SDS011;3314;50.890;4.722;2024-03-06T01:49:28;13.2;;;4.5;;
6561;SDS011;3314;50.890;4.722;2024-03-06T01:53:28;11.4;;;4.6;;
6561;SDS011;3314;50.890;4.722;2024-03-06T01:55:28;13.8;;;4.1;;
6561;SDS011;3314;50.890;4.722;2024-03-06T01:57:28;16.5;;;4.9;;
6561;SDS011;3314;50.890;4.722;2024-03-06T01:59:28;13.3;;;4.0;;
6561;SDS011;3314;50.890;4.722;2024-03-06T02:01:30;10.7;;;4.0;;
6561;SDS011;3314;50.890;4.722;2024-03-06T02:03:31;13.0;;;5.2;;
6561;SDS011;3314;50.890;4.722;2024-03-06T02:05:32;13.6;;;4.8;;
6561;SDS011;3314;50.890;4.722;2024-03-06T02:07:21;10.8;;;4.4;;
6561;SDS011;3314;50.890;4.722;2024-03-06T02:09:23;15.2;;;5.0;;
6561;SDS011;3314;50.890;4.722;2024-03-06T02:11:23;10.7;;;4.6;;
6561;SDS011;3314;50.890;4.722;2024-03-06T02:13:23;12.4;;;4.5;;
6561;SDS011;3314;50.890;4.722;2024-03-06T02:15:23;11.6;;;4.2;;
6561;SDS011;3314;50.890;4.722;2024-03-06T02:17:26;11.7;;;4.5;;
6561;SDS011;3314;50.890;4.722;2024-03-06T02:19:37;14.4;;;4.7;;
6561;SDS011;3314;50.890;4.722;2024-03-06T02:21:25;12.3;;;4.3;;
6561;SDS011;3314;50.890;4.722;2024-03-06T02:23:24;11.3;;;4.6;;
6561;SDS011;3314;50.890;4.722;2024-03-06T02:25:26;12.6;;;4.4;;
6561;SDS011;3314;50.890;4.722;2024-03-06T02:27:31;10.8;;;4.4;;
6561;SDS011;3314;50.890;4.722;2024-03-06T02:29:19;11.9;;;3.9;;
6561;SDS011;3314;50.890;4.722;2024-03-06T02:31:19;10.5;;;3.9;;
6561;SDS011;3314;50.890;4.722;2024-03-06T02:33:19;14.3;;;4.1;;
6561;SDS011;3314;50.890;4.722;2024-03-06T02:35:21;12.3;;;4.5;;
6561;SDS011;3314;50.890;4.722;2024-03-06T02:37:25;15.8;;;4.6;;
6561;SDS011;3314;50.890;4.722;2024-03-06T02:39:24;12.8;;;4.8;;
6561;SDS011;3314;50.890;4.722;2024-03-06T02:41:24;12.5;;;4.7;;
6561;SDS011;3314;50.890;4.722;2024-03-06T02:43:23;13.0;;;4.6;;
6561;SDS011;3314;50.890;4.722;2024-03-06T02:45:23;13.1;;;4.3;;
6561;SDS011;3314;50.890;4.722;2024-03-06T02:47:16;10.8;;;3.9;;
6561;SDS011;3314;50.890;4.722;2024-03-06T02:49:16;13.2;;;5.1;;
6561;SDS011;3314;50.890;4.722;2024-03-06T02:51:18;13.9;;;4.4;;
6561;SDS011;3314;50.890;4.722;2024-03-06T02:53:20;12.2;;;4.2;;
6561;SDS011;3314;50.890;4.722;2024-03-06T02:55:20;13.3;;;4.9;;
6561;SDS011;3314;50.890;4.722;2024-03-06T02:57:20;15.7;;;4.3;;
6561;SDS011;3314;50.890;4.722;2024-03-06T02:59:20;11.7;;;4.8;;
6561;SDS011;3314;50.890;4.722;2024-03-06T03:01:19;12.8;;;4.1;;
6561;SDS011;3314;50.890;4.722;2024-03-06T03:03:20;12.6;;;4.7;;
6561;SDS011;3314;50.890;4.722;2024-03-06T03:05:09;14.4;;;4.6;;
6561;SDS011;3314;50.890;4.722;2024-03-06T03:07:10;11.6;;;4.1;;
6561;SDS011;3314;50.890;4.722;2024-03-06T03:09:12;12.1;;;4.3;;
6561;SDS011;3314;50.890;4.722;2024-03-06T03:11:12;12.0;;;4.0;;
6561;SDS011;3314;50.890;4.722;2024-03-06T03:13:12;12.6;;;4.6;;
6561;SDS011;3314;50.890;4.722;2024-03-06T03:15:11;9.7;;;3.9;;
6561;SDS011;3314;50.890;4.722;2024-03-06T03:17:16;11.9;;;4.4;;
6561;SDS011;3314;50.890;4.722;2024-03-06T03:19:16;13.0;;;4.5;;
6561;SDS011;3314;50.890;4.722;2024-03-06T03:21:16;12.9;;;3.9;;
6561;SDS011;3314;50.890;4.722;2024-03-06T03:23:22;13.7;;;5.0;;
6561;SDS011;3314;50.890;4.722;2024-03-06T03:25:14;14.7;;;4.5;;
6561;SDS011;3314;50.890;4.722;2024-03-06T03:27:14;14.9;;;5.2;;
6561;SDS011;3314;50.890;4.722;2024-03-06T03:29:13;13.3;;;4.4;;
6561;SDS011;3314;50.890;4.722;2024-03-06T03:31:13;13.9;;;4.2;;
6561;SDS011;3314;50.890;4.722;2024-03-06T03:33:15;11.6;;;4.2;;
6561;SDS011;3314;50.890;4.722;2024-03-06T03:35:04;10.9;;;4.4;;
6561;SDS011;3314;50.890;4.722;2024-03-06T03:37:03;9.2;;;3.4;;
6561;SDS011;3314;50.890;4.722;2024-03-06T03:39:07;13.3;;;4.2;;
6561;SDS011;3314;50.890;4.722;2024-03-06T03:41:07;12.0;;;4.1;;
6561;SDS011;3314;50.890;4.722;2024-03-06T03:43:07;13.5;;;4.0;;
6561;SDS011;3314;50.890;4.722;2024-03-06T03:45:08;17.0;;;5.0;;
6561;SDS011;3314;50.890;4.722;2024-03-06T03:47:13;10.2;;;3.6;;
6561;SDS011;3314;50.890;4.722;2024-03-06T03:49:01;10.9;;;3.7;;
6561;SDS011;3314;50.890;4.722;2024-03-06T03:51:01;12.6;;;4.6;;
6561;SDS011;3314;50.890;4.722;2024-03-06T03:53:01;16.7;;;4.6;;
6561;SDS011;3314;50.890;4.722;2024-03-06T03:55:01;10.7;;;4.3;;
6561;SDS011;3314;50.890;4.722;2024-03-06T03:57:00;10.7;;;3.9;;
6561;SDS011;3314;50.890;4.722;2024-03-06T03:59:00;13.1;;;4.1;;
6561;SDS011;3314;50.890;4.722;2024-03-06T04:01:02;12.5;;;3.9;;
6561;SDS011;3314;50.890;4.722;2024-03-06T04:03:02;11.5;;;3.9;;
6561;SDS011;3314;50.890;4.722;2024-03-06T04:05:03;12.6;;;4.1;;
6561;SDS011;3314;50.890;4.722;2024-03-06T04:07:03;13.5;;;4.4;;
6561;SDS011;3314;50.890;4.722;2024-03-06T04:09:03;12.6;;;4.7;;
6561;SDS011;3314;50.890;4.722;2024-03-06T04:11:05;12.8;;;4.7;;
6561;SDS011;3314;50.890;4.722;2024-03-06T04:13:04;12.5;;;4.4;;
6561;SDS011;3314;50.890;4.722;2024-03-06T04:15:08;13.6;;;3.9;;
6561;SDS011;3314;50.890;4.722;2024-03-06T04:16:59;10.2;;;3.4;;
6561;SDS011;3314;50.890;4.722;2024-03-06T04:18:59;12.8;;;4.5;;
6561;SDS011;3314;50.890;4.722;2024-03-06T04:20:59;10.9;;;3.9;;
6561;SDS011;3314;50.890;4.722;2024-03-06T04:23:05;14.3;;;4.1;;
6561;SDS011;3314;50.890;4.722;2024-03-06T04:24:53;14.8;;;4.6;;
6561;SDS011;3314;50.890;4.722;2024-03-06T04:26:53;10.1;;;4.0;;
6561;SDS011;3314;50.890;4.722;2024-03-06T04:28:53;12.7;;;4.4;;
6561;SDS011;3314;50.890;4.722;2024-03-06T04:30:52;13.6;;;4.4;;
6561;SDS011;3314;50.890;4.722;2024-03-06T04:32:52;13.5;;;4.6;;
6561;SDS011;3314;50.890;4.722;2024-03-06T04:34:54;12.3;;;4.1;;
6561;SDS011;3314;50.890;4.722;2024-03-06T04:36:53;12.0;;;4.2;;
6561;SDS011;3314;50.890;4.722;2024-03-06T04:38:58;14.3;;;5.3;;
6561;SDS011;3314;50.890;4.722;2024-03-06T04:40:58;14.7;;;4.4;;
6561;SDS011;3314;50.890;4.722;2024-03-06T04:42:57;15.6;;;4.9;;
6561;SDS011;3314;50.890;4.722;2024-03-06T04:44:57;13.9;;;4.8;;
6561;SDS011;3314;50.890;4.722;2024-03-06T04:46:57;10.8;;;4.1;;
6561;SDS011;3314;50.890;4.722;2024-03-06T04:48:58;13.2;;;4.4;;
6561;SDS011;3314;50.890;4.722;2024-03-06T04:51:05;13.5;;;4.3;;
6561;SDS011;3314;50.890;4.722;2024-03-06T04:52:53;12.7;;;4.4;;
6561;SDS011;3314;50.890;4.722;2024-03-06T04:54:53;13.9;;;4.6;;
6561;SDS011;3314;50.890;4.722;2024-03-06T04:56:53;11.4;;;3.6;;
6561;SDS011;3314;50.890;4.722;2024-03-06T04:58:53;15.3;;;4.5;;
6561;SDS011;3314;50.890;4.722;2024-03-06T05:00:52;13.8;;;4.8;;
6561;SDS011;3314;50.890;4.722;2024-03-06T05:02:52;12.1;;;4.1;;
6561;SDS011;3314;50.890;4.722;2024-03-06T05:04:52;14.9;;;4.9;;
6561;SDS011;3314;50.890;4.722;2024-03-06T05:06:51;13.6;;;5.4;;
6561;SDS011;3314;50.890;4.722;2024-03-06T05:08:51;13.8;;;4.6;;
6561;SDS011;3314;50.890;4.722;2024-03-06T05:10:51;13.5;;;4.4;;
6561;SDS011;3314;50.890;4.722;2024-03-06T05:12:51;13.6;;;4.7;;
6561;SDS011;3314;50.890;4.722;2024-03-06T05:14:51;12.4;;;4.5;;
6561;SDS011;3314;50.890;4.722;2024-03-06T05:16:53;11.2;;;3.6;;
6561;SDS011;3314;50.890;4.722;2024-03-06T05:18:42;11.2;;;4.1;;
6561;SDS011;3314;50.890;4.722;2024-03-06T05:20:43;10.4;;;4.5;;
6561;SDS011;3314;50.890;4.722;2024-03-06T05:22:43;11.4;;;4.3;;
6561;SDS011;3314;50.890;4.722;2024-03-06T05:24:43;11.6;;;3.8;;
6561;SDS011;3314;50.890;4.722;2024-03-06T05:26:43;13.6;;;4.8;;
6561;SDS011;3314;50.890;4.722;2024-03-06T05:28:43;13.3;;;5.4;;
6561;SDS011;3314;50.890;4.722;2024-03-06T05:30:43;17.1;;;5.4;;
6561;SDS011;3314;50.890;4.722;2024-03-06T05:32:43;13.1;;;4.5;;
6561;SDS011;3314;50.890;4.722;2024-03-06T05:34:42;15.8;;;5.1;;
6561;SDS011;3314;50.890;4.722;2024-03-06T05:36:43;12.0;;;4.6;;
6561;SDS011;3314;50.890;4.722;2024-03-06T05:38:45;13.5;;;4.1;;
6561;SDS011;3314;50.890;4.722;2024-03-06T05:40:46;12.9;;;4.3;;
6561;SDS011;3314;50.890;4.722;2024-03-06T05:42:48;11.1;;;4.1;;
6561;SDS011;3314;50.890;4.722;2024-03-06T05:44:37;13.5;;;4.1;;
6561;SDS011;3314;50.890;4.722;2024-03-06T05:46:37;11.2;;;4.1;;
6561;SDS011;3314;50.890;4.722;2024-03-06T05:48:36;10.9;;;4.4;;
6561;SDS011;3314;50.890;4.722;2024-03-06T05:50:36;10.8;;;3.5;;
6561;SDS011;3314;50.890;4.722;2024-03-06T05:52:36;10.3;;;3.9;;
6561;SDS011;3314;50.890;4.722;2024-03-06T05:54:37;13.1;;;4.7;;
6561;SDS011;3314;50.890;4.722;2024-03-06T05:56:39;11.0;;;3.7;;
6561;SDS011;3314;50.890;4.722;2024-03-06T05:58:39;13.3;;;5.1;;
6561;SDS011;3314;50.890;4.722;2024-03-06T06:00:41;9.7;;;3.9;;
6561;SDS011;3314;50.890;4.722;2024-03-06T06:02:40;11.2;;;4.4;;
6561;SDS011;3314;50.890;4.722;2024-03-06T06:04:40;15.8;;;4.1;;
6561;SDS011;3314;50.890;4.722;2024-03-06T06:06:40;11.4;;;4.0;;
6561;SDS011;3314;50.890;4.722;2024-03-06T06:08:39;12.1;;;4.1;;
6561;SDS011;3314;50.890;4.722;2024-03-06T06:10:39;11.3;;;4.2;;
6561;SDS011;3314;50.890;4.722;2024-03-06T06:12:39;15.0;;;5.0;;
6561;SDS011;3314;50.890;4.722;2024-03-06T06:14:38;15.1;;;4.8;;
6561;SDS011;3314;50.890;4.722;2024-03-06T06:16:38;12.5;;;4.3;;
6561;SDS011;3314;50.890;4.722;2024-03-06T06:18:40;15.0;;;5.2;;
6561;SDS011;3314;50.890;4.722;2024-03-06T06:20:29;12.4;;;4.1;;
6561;SDS011;3314;50.890;4.722;2024-03-06T06:22:29;16.4;;;5.0;;
6561;SDS011;3314;50.890;4.722;2024-03-06T06:24:30;14.7;;;4.6;;
6561;SDS011;3314;50.890;4.722;2024-03-06T06:26:29;12.3;;;4.1;;
6561;SDS011;3314;50.890;4.722;2024-03-06T06:28:29;13.6;;;4.3;;
6561;SDS011;3314;50.890;4.722;2024-03-06T06:30:31;15.9;;;4.8;;
6561;SDS011;3314;50.890;4.722;2024-03-06T06:32:31;13.3;;;4.3;;
6561;SDS011;3314;50.890;4.722;2024-03-06T06:34:32;14.9;;;6.3;;
6561;SDS011;3314;50.890;4.722;2024-03-06T06:36:32;16.4;;;6.6;;
6561;SDS011;3314;50.890;4.722;2024-03-06T06:38:31;16.0;;;6.1;;
6561;SDS011;3314;50.890;4.722;2024-03-06T06:40:31;19.8;;;6.5;;
6561;SDS011;3314;50.890;4.722;2024-03-06T06:42:31;14.7;;;5.9;;
6561;SDS011;3314;50.890;4.722;2024-03-06T06:44:30;14.7;;;5.7;;
6561;SDS011;3314;50.890;4.722;2024-03-06T06:46:33;17.9;;;5.1;;
6561;SDS011;3314;50.890;4.722;2024-03-06T06:48:33;18.0;;;6.0;;
6561;SDS011;3314;50.890;4.722;2024-03-06T06:50:26;15.4;;;5.9;;
6561;SDS011;3314;50.890;4.722;2024-03-06T06:52:28;14.7;;;5.5;;
6561;SDS011;3314;50.890;4.722;2024-03-06T06:54:27;15.9;;;6.0;;
6561;SDS011;3314;50.890;4.722;2024-03-06T06:56:27;15.4;;;5.6;;
6561;SDS011;3314;50.890;4.722;2024-03-06T06:58:27;15.1;;;5.6;;
6561;SDS011;3314;50.890;4.722;2024-03-06T07:00:30;16.4;;;5.2;;
6561;SDS011;3314;50.890;4.722;2024-03-06T07:02:31;11.1;;;4.7;;
6561;SDS011;3314;50.890;4.722;2024-03-06T07:04:20;14.3;;;5.1;;
6561;SDS011;3314;50.890;4.722;2024-03-06T07:06:20;15.5;;;6.0;;
6561;SDS011;3314;50.890;4.722;2024-03-06T07:08:20;14.1;;;5.7;;
6561;SDS011;3314;50.890;4.722;2024-03-06T07:10:20;12.6;;;4.7;;
6561;SDS011;3314;50.890;4.722;2024-03-06T07:12:19;12.3;;;4.7;;
6561;SDS011;3314;50.890;4.722;2024-03-06T07:14:19;12.6;;;5.5;;
6561;SDS011;3314;50.890;4.722;2024-03-06T07:16:19;13.7;;;5.5;;
6561;SDS011;3314;50.890;4.722;2024-03-06T07:18:19;15.2;;;5.2;;
6561;SDS011;3314;50.890;4.722;2024-03-06T07:20:19;13.8;;;5.4;;
6561;SDS011;3314;50.890;4.722;2024-03-06T07:22:19;13.3;;;5.8;;
6561;SDS011;3314;50.890;4.722;2024-03-06T07:24:19;14.4;;;5.3;;
6561;SDS011;3314;50.890;4.722;2024-03-06T07:26:19;13.8;;;6.2;;
6561;SDS011;3314;50.890;4.722;2024-03-06T07:28:19;14.8;;;5.1;;
6561;SDS011;3314;50.890;4.722;2024-03-06T07:30:19;12.9;;;5.4;;
6561;SDS011;3314;50.890;4.722;2024-03-06T07:32:18;15.4;;;5.7;;
6561;SDS011;3314;50.890;4.722;2024-03-06T07:34:18;14.7;;;6.0;;
6561;SDS011;3314;50.890;4.722;2024-03-06T07:36:18;15.7;;;6.1;;
6561;SDS011;3314;50.890;4.722;2024-03-06T07:38:18;12.8;;;5.3;;
6561;SDS011;3314;50.890;4.722;2024-03-06T07:40:20;12.7;;;5.0;;
6561;SDS011;3314;50.890;4.722;2024-03-06T07:42:20;10.7;;;3.9;;
6561;SDS011;3314;50.890;4.722;2024-03-06T07:44:21;15.2;;;4.6;;
6561;SDS011;3314;50.890;4.722;2024-03-06T07:46:20;14.0;;;4.8;;
6561;SDS011;3314;50.890;4.722;2024-03-06T07:48:20;11.9;;;4.4;;
6561;SDS011;3314;50.890;4.722;2024-03-06T07:50:21;16.0;;;4.7;;
6561;SDS011;3314;50.890;4.722;2024-03-06T07:52:10;11.6;;;4.3;;
6561;SDS011;3314;50.890;4.722;2024-03-06T07:54:11;12.2;;;4.2;;
6561;SDS011;3314;50.890;4.722;2024-03-06T07:56:11;13.0;;;4.2;;
6561;SDS011;3314;50.890;4.722;2024-03-06T07:58:16;11.7;;;4.5;;
6561;SDS011;3314;50.890;4.722;2024-03-06T08:00:24;14.9;;;5.2;;
6561;SDS011;3314;50.890;4.722;2024-03-06T08:02:11;17.4;;;5.3;;
6561;SDS011;3314;50.890;4.722;2024-03-06T08:04:11;11.5;;;4.3;;
6561;SDS011;3314;50.890;4.722;2024-03-06T08:06:11;10.7;;;4.2;;
6561;SDS011;3314;50.890;4.722;2024-03-06T08:08:10;11.7;;;4.5;;
6561;SDS011;3314;50.890;4.722;2024-03-06T08:10:13;12.8;;;4.8;;
6561;SDS011;3314;50.890;4.722;2024-03-06T08:12:15;10.5;;;4.0;;
6561;SDS011;3314;50.890;4.722;2024-03-06T08:14:17;13.2;;;4.3;;
6561;SDS011;3314;50.890;4.722;2024-03-06T08:16:08;14.3;;;4.4;;
6561;SDS011;3314;50.890;4.722;2024-03-06T08:18:08;13.1;;;4.7;;
6561;SDS011;3314;50.890;4.722;2024-03-06T08:20:11;12.2;;;4.6;;
6561;SDS011;3314;50.890;4.722;2024-03-06T08:22:11;14.9;;;4.3;;
6561;SDS011;3314;50.890;4.722;2024-03-06T08:24:11;11.0;;;4.3;;
6561;SDS011;3314;50.890;4.722;2024-03-06T08:26:10;13.0;;;4.8;;
6561;SDS011;3314;50.890;4.722;2024-03-06T08:28:10;15.0;;;5.3;;
6561;SDS011;3314;50.890;4.722;2024-03-06T08:30:13;14.5;;;4.7;;
6561;SDS011;3314;50.890;4.722;2024-03-06T08:32:02;19.0;;;5.0;;
6561;SDS011;3314;50.890;4.722;2024-03-06T08:34:02;13.2;;;4.1;;
6561;SDS011;3314;50.890;4.722;2024-03-06T08:36:03;14.7;;;5.2;;
6561;SDS011;3314;50.890;4.722;2024-03-06T08:38:03;12.4;;;4.1;;
6561;SDS011;3314;50.890;4.722;2024-03-06T08:40:11;11.5;;;4.2;;
6561;SDS011;3314;50.890;4.722;2024-03-06T08:42:01;13.6;;;4.1;;
6561;SDS011;3314;50.890;4.722;2024-03-06T08:44:01;15.3;;;4.4;;
6561;SDS011;3314;50.890;4.722;2024-03-06T08:46:01;12.6;;;4.8;;
6561;SDS011;3314;50.890;4.722;2024-03-06T08:48:01;12.4;;;3.7;;
6561;SDS011;3314;50.890;4.722;2024-03-06T08:50:03;15.5;;;4.7;;
6561;SDS011;3314;50.890;4.722;2024-03-06T08:52:05;12.3;;;4.6;;
6561;SDS011;3314;50.890;4.722;2024-03-06T08:54:07;11.9;;;4.4;;
6561;SDS011;3314;50.890;4.722;2024-03-06T08:56:08;11.5;;;3.9;;
6561;SDS011;3314;50.890;4.722;2024-03-06T08:57:58;11.8;;;4.3;;
6561;SDS011;3314;50.890;4.722;2024-03-06T08:59:58;12.2;;;4.1;;
6561;SDS011;3314;50.890;4.722;2024-03-06T09:01:58;10.3;;;3.8;;
6561;SDS011;3314;50.890;4.722;2024-03-06T09:04:01;9.7;;;3.1;;
6561;SDS011;3314;50.890;4.722;2024-03-06T09:06:03;11.5;;;4.3;;
6561;SDS011;3314;50.890;4.722;2024-03-06T09:08:03;9.1;;;3.4;;
6561;SDS011;3314;50.890;4.722;2024-03-06T09:10:03;11.2;;;3.4;;
6561;SDS011;3314;50.890;4.722;2024-03-06T09:12:05;11.2;;;4.0;;
6561;SDS011;3314;50.890;4.722;2024-03-06T09:13:54;14.7;;;3.5;;
6561;SDS011;3314;50.890;4.722;2024-03-06T09:15:54;12.2;;;3.5;;
6561;SDS011;3314;50.890;4.722;2024-03-06T09:17:55;12.7;;;2.9;;
6561;SDS011;3314;50.890;4.722;2024-03-06T09:19:54;16.2;;;4.5;;
6561;SDS011;3314;50.890;4.722;2024-03-06T09:21:54;12.2;;;3.2;;
6561;SDS011;3314;50.890;4.722;2024-03-06T09:23:56;9.6;;;3.2;;
6561;SDS011;3314;50.890;4.722;2024-03-06T09:25:56;11.6;;;3.7;;
6561;SDS011;3314;50.890;4.722;2024-03-06T09:27:56;9.6;;;2.7;;
6561;SDS011;3314;50.890;4.722;2024-03-06T09:29:56;8.4;;;2.7;;
6561;SDS011;3314;50.890;4.722;2024-03-06T09:31:56;11.7;;;3.0;;
6561;SDS011;3314;50.890;4.722;2024-03-06T09:33:56;13.1;;;2.8;;
6561;SDS011;3314;50.890;4.722;2024-03-06T09:35:59;8.7;;;2.7;;
6561;SDS011;3314;50.890;4.722;2024-03-06T09:37:59;12.0;;;3.0;;
6561;SDS011;3314;50.890;4.722;2024-03-06T09:39:58;10.3;;;3.2;;
6561;SDS011;3314;50.890;4.722;2024-03-06T09:41:59;9.4;;;2.9;;
6561;SDS011;3314;50.890;4.722;2024-03-06T09:43:59;10.4;;;3.0;;
6561;SDS011;3314;50.890;4.722;2024-03-06T09:45:49;10.9;;;2.9;;
6561;SDS011;3314;50.890;4.722;2024-03-06T09:47:51;10.2;;;2.8;;
6561;SDS011;3314;50.890;4.722;2024-03-06T09:49:50;9.5;;;3.1;;
6561;SDS011;3314;50.890;4.722;2024-03-06T09:51:50;8.8;;;2.6;;
6561;SDS011;3314;50.890;4.722;2024-03-06T09:53:52;13.0;;;3.4;;
6561;SDS011;3314;50.890;4.722;2024-03-06T09:55:51;8.4;;;2.7;;
6561;SDS011;3314;50.890;4.722;2024-03-06T09:57:51;11.0;;;2.9;;
6561;SDS011;3314;50.890;4.722;2024-03-06T09:59:59;11.2;;;3.3;;
6561;SDS011;3314;50.890;4.722;2024-03-06T10:01:48;10.7;;;2.9;;
6561;SDS011;3314;50.890;4.722;2024-03-06T10:03:48;13.6;;;3.3;;
6561;SDS011;3314;50.890;4.722;2024-03-06T10:05:48;13.7;;;2.8;;
6561;SDS011;3314;50.890;4.722;2024-03-06T10:07:48;12.6;;;3.1;;
6561;SDS011;3314;50.890;4.722;2024-03-06T10:09:48;10.5;;;2.5;;
6561;SDS011;3314;50.890;4.722;2024-03-06T10:11:48;10.1;;;2.7;;
6561;SDS011;3314;50.890;4.722;2024-03-06T10:13:49;10.8;;;2.3;;
6561;SDS011;3314;50.890;4.722;2024-03-06T10:15:57;7.8;;;2.3;;
6561;SDS011;3314;50.890;4.722;2024-03-06T10:17:48;8.2;;;2.3;;
6561;SDS011;3314;50.890;4.722;2024-03-06T10:19:52;9.3;;;3.0;;
6561;SDS011;3314;50.890;4.722;2024-03-06T10:21:52;14.5;;;3.2;;
6561;SDS011;3314;50.890;4.722;2024-03-06T10:23:52;9.0;;;2.9;;
6561;SDS011;3314;50.890;4.722;2024-03-06T10:25:45;9.6;;;2.7;;
6561;SDS011;3314;50.890;4.722;2024-03-06T10:27:45;11.0;;;3.2;;
6561;SDS011;3314;50.890;4.722;2024-03-06T10:29:45;9.0;;;2.5;;
6561;SDS011;3314;50.890;4.722;2024-03-06T10:31:48;9.6;;;2.9;;
6561;SDS011;3314;50.890;4.722;2024-03-06T10:33:48;9.0;;;2.3;;
6561;SDS011;3314;50.890;4.722;2024-03-06T10:35:54;8.0;;;1.7;;
6561;SDS011;3314;50.890;4.722;2024-03-06T10:37:42;9.6;;;2.4;;
6561;SDS011;3314;50.890;4.722;2024-03-06T10:39:42;9.3;;;2.0;;
6561;SDS011;3314;50.890;4.722;2024-03-06T10:41:45;8.3;;;2.1;;
6561;SDS011;3314;50.890;4.722;2024-03-06T10:43:47;10.6;;;2.2;;
6561;SDS011;3314;50.890;4.722;2024-03-06T10:45:52;8.3;;;2.4;;
6561;SDS011;3314;50.890;4.722;2024-03-06T10:47:45;9.5;;;2.3;;
6561;SDS011;3314;50.890;4.722;2024-03-06T10:49:45;9.1;;;1.8;;
6561;SDS011;3314;50.890;4.722;2024-03-06T10:51:45;10.5;;;2.2;;
6561;SDS011;3314;50.890;4.722;2024-03-06T10:53:46;6.9;;;1.7;;
6561;SDS011;3314;50.890;4.722;2024-03-06T10:55:49;9.6;;;2.1;;
6561;SDS011;3314;50.890;4.722;2024-03-06T10:57:42;8.3;;;1.5;;
6561;SDS011;3314;50.890;4.722;2024-03-06T10:59:42;11.3;;;1.5;;
6561;SDS011;3314;50.890;4.722;2024-03-06T11:01:44;7.5;;;1.7;;
6561;SDS011;3314;50.890;4.722;2024-03-06T11:03:44;8.7;;;1.5;;
6561;SDS011;3314;50.890;4.722;2024-03-06T11:05:51;9.2;;;1.1;;
6561;SDS011;3314;50.890;4.722;2024-03-06T11:07:39;7.0;;;1.3;;
6561;SDS011;3314;50.890;4.722;2024-03-06T11:09:39;8.2;;;1.4;;
6561;SDS011;3314;50.890;4.722;2024-03-06T11:11:47;7.5;;;1.4;;
6561;SDS011;3314;50.890;4.722;2024-03-06T11:13:37;10.0;;;1.5;;
6561;SDS011;3314;50.890;4.722;2024-03-06T11:15:39;9.3;;;1.6;;
6561;SDS011;3314;50.890;4.722;2024-03-06T11:17:42;8.2;;;1.7;;
6561;SDS011;3314;50.890;4.722;2024-03-06T11:20:19;8.4;;;1.6;;
6561;SDS011;3314;50.890;4.722;2024-03-06T11:21:33;11.7;;;1.6;;
6561;SDS011;3314;50.890;4.722;2024-03-06T11:23:33;7.3;;;1.6;;
6561;SDS011;3314;50.890;4.722;2024-03-06T11:25:56;8.3;;;1.4;;
6561;SDS011;3314;50.890;4.722;2024-03-06T11:27:32;8.7;;;2.0;;
6561;SDS011;3314;50.890;4.722;2024-03-06T11:30:03;10.6;;;1.6;;
6561;SDS011;3314;50.890;4.722;2024-03-06T11:31:39;10.5;;;1.5;;
6561;SDS011;3314;50.890;4.722;2024-03-06T11:33:39;8.2;;;1.7;;
6561;SDS011;3314;50.890;4.722;2024-03-06T11:35:40;8.4;;;1.9;;
6561;SDS011;3314;50.890;4.722;2024-03-06T11:37:45;7.9;;;1.6;;
6561;SDS011;3314;50.890;4.722;2024-03-06T11:39:34;7.6;;;1.7;;
6561;SDS011;3314;50.890;4.722;2024-03-06T11:41:46;12.0;;;2.2;;
6561;SDS011;3314;50.890;4.722;2024-03-06T11:43:41;10.0;;;1.6;;
6561;SDS011;3314;50.890;4.722;2024-03-06T11:45:30;8.5;;;2.0;;
6561;SDS011;3314;50.890;4.722;2024-03-06T11:47:30;11.3;;;1.9;;
6561;SDS011;3314;50.890;4.722;2024-03-06T11:49:32;10.0;;;1.7;;
6561;SDS011;3314;50.890;4.722;2024-03-06T11:51:32;12.1;;;1.9;;
6561;SDS011;3314;50.890;4.722;2024-03-06T11:53:33;8.5;;;1.7;;
6561;SDS011;3314;50.890;4.722;2024-03-06T11:55:32;9.9;;;2.4;;
6561;SDS011;3314;50.890;4.722;2024-03-06T11:57:34;8.6;;;1.8;;
6561;SDS011;3314;50.890;4.722;2024-03-06T11:59:34;9.4;;;1.6;;
6561;SDS011;3314;50.890;4.722;2024-03-06T12:01:34;11.0;;;1.8;;
6561;SDS011;3314;50.890;4.722;2024-03-06T12:03:34;7.9;;;1.6;;
6561;SDS011;3314;50.890;4.722;2024-03-06T12:05:34;9.7;;;1.6;;
6561;SDS011;3314;50.890;4.722;2024-03-06T12:07:44;8.6;;;1.6;;
6561;SDS011;3314;50.890;4.722;2024-03-06T12:09:32;10.8;;;1.9;;
6561;SDS011;3314;50.890;4.722;2024-03-06T12:11:32;6.7;;;1.5;;
6561;SDS011;3314;50.890;4.722;2024-03-06T12:13:25;10.5;;;1.7;;
6561;SDS011;3314;50.890;4.722;2024-03-06T12:15:24;9.9;;;1.7;;
6561;SDS011;3314;50.890;4.722;2024-03-06T12:17:24;9.1;;;1.7;;
6561;SDS011;3314;50.890;4.722;2024-03-06T12:19:27;10.2;;;1.9;;
6561;SDS011;3314;50.890;4.722;2024-03-06T12:21:27;8.4;;;1.5;;
6561;SDS011;3314;50.890;4.722;2024-03-06T12:23:27;9.0;;;1.7;;
6561;SDS011;3314;50.890;4.722;2024-03-06T12:25:27;10.5;;;1.5;;
6561;SDS011;3314;50.890;4.722;2024-03-06T12:27:29;9.8;;;2.1;;
6561;SDS011;3314;50.890;4.722;2024-03-06T12:29:30;9.5;;;2.3;;
6561;SDS011;3314;50.890;4.722;2024-03-06T12:31:31;8.3;;;1.4;;
6561;SDS011;3314;50.890;4.722;2024-03-06T12:33:34;9.7;;;1.3;;
6561;SDS011;3314;50.890;4.722;2024-03-06T12:35:27;8.9;;;1.6;;
6561;SDS011;3314;50.890;4.722;2024-03-06T12:37:30;9.9;;;1.5;;
6561;SDS011;3314;50.890;4.722;2024-03-06T12:39:31;9.3;;;1.5;;
6561;SDS011;3314;50.890;4.722;2024-03-06T12:41:20;8.5;;;1.6;;